Altama, Georgia
Current Conditions -  °F | °C
As of 8:55 AM on Saturday 22 Nov 2014 (Local Time) from KBQK Reporting Station
NA  
Wind Chill: 63°   Ceiling: NA
Heat Index: 63°   Visibility: 10mi
Dew Point: 52°   Wind: 15mph
Humidity: 68%   Direction: 50°NE
Pressure: 30.4"   Gusts: 21mph
Location:  31.1773°N, 81.4991°W
Report Text: KBQK 221355Z AUTO 05013G18KT 10SM 17/11 A3040 RMK AO1
Loading
Personal Weather Stations






























Interactive Weather Map New forecast layout! Learn more

10-Day Weather Forecast

Advertisements
Track Severe Weather on mobile